Inegol, Turkey
Current Conditions -  °F | °C
As of 10:50 PM on Friday 19 Dec 2014 (Local Time) from LTBR Reporting Station
Haze Haze  
Wind Chill: 39°   Ceiling: Unl
Heat Index: 39°   Visibility: 2mi
Dew Point: 37°   Wind: 3mph
Humidity: 93%   Direction: 40°NE
Pressure: 30.18"   Gusts: NA
Location:  40.08°N, 29.51°E
Report Text: LTBR 191950Z 04003KT 3200 BR NSC 04/03 Q1022 NOSIG
Loading
Personal Weather Stations






























Interactive Weather Map New forecast layout! Learn more

10-Day Weather Forecast

Advertisements
Track Severe Weather on mobile